sensor_id;sensor_type;location;lat;lon;timestamp;temperature;humidity
20534;DHT22;12929;56.822;26.056;2023-12-20T00:01:08;2.40;99.90
20534;DHT22;12929;56.822;26.056;2023-12-20T00:03:35;2.40;99.90
20534;DHT22;12929;56.822;26.056;2023-12-20T00:06:09;2.40;99.90
20534;DHT22;12929;56.822;26.056;2023-12-20T00:08:37;2.40;99.90
20534;DHT22;12929;56.822;26.056;2023-12-20T00:11:04;2.30;99.90
20534;DHT22;12929;56.822;26.056;2023-12-20T00:13:32;2.30;99.90
20534;DHT22;12929;56.822;26.056;2023-12-20T00:15:59;2.30;99.90
20534;DHT22;12929;56.822;26.056;2023-12-20T00:18:26;2.30;99.90
20534;DHT22;12929;56.822;26.056;2023-12-20T00:20:54;2.30;99.90
20534;DHT22;12929;56.822;26.056;2023-12-20T00:23:21;2.30;99.90
20534;DHT22;12929;56.822;26.056;2023-12-20T00:25:50;2.30;99.90
20534;DHT22;12929;56.822;26.056;2023-12-20T00:28:17;2.30;99.90
20534;DHT22;12929;56.822;26.056;2023-12-20T00:30:45;2.30;99.90
20534;DHT22;12929;56.822;26.056;2023-12-20T00:33:13;2.20;99.90
20534;DHT22;12929;56.822;26.056;2023-12-20T00:35:41;2.30;99.90
20534;DHT22;12929;56.822;26.056;2023-12-20T00:38:08;2.30;99.90
20534;DHT22;12929;56.822;26.056;2023-12-20T00:40:38;2.30;99.90
20534;DHT22;12929;56.822;26.056;2023-12-20T00:43:05;2.30;99.90
20534;DHT22;12929;56.822;26.056;2023-12-20T00:45:33;2.20;99.90
20534;DHT22;12929;56.822;26.056;2023-12-20T00:48:00;2.20;99.90
20534;DHT22;12929;56.822;26.056;2023-12-20T00:50:28;2.30;99.90
20534;DHT22;12929;56.822;26.056;2023-12-20T00:52:56;2.20;99.90
20534;DHT22;12929;56.822;26.056;2023-12-20T00:55:24;2.20;99.90
20534;DHT22;12929;56.822;26.056;2023-12-20T00:57:52;2.20;99.90
20534;DHT22;12929;56.822;26.056;2023-12-20T01:00:20;2.20;99.90
20534;DHT22;12929;56.822;26.056;2023-12-20T01:02:48;2.10;99.90
20534;DHT22;12929;56.822;26.056;2023-12-20T01:05:18;2.20;99.90
20534;DHT22;12929;56.822;26.056;2023-12-20T01:07:46;2.20;99.90
20534;DHT22;12929;56.822;26.056;2023-12-20T01:10:14;2.20;99.90
20534;DHT22;12929;56.822;26.056;2023-12-20T01:12:41;2.10;99.90
20534;DHT22;12929;56.822;26.056;2023-12-20T01:15:09;2.10;99.90
20534;DHT22;12929;56.822;26.056;2023-12-20T01:17:37;2.10;99.90
20534;DHT22;12929;56.822;26.056;2023-12-20T01:20:05;2.10;99.90
20534;DHT22;12929;56.822;26.056;2023-12-20T01:22:33;2.10;99.90
20534;DHT22;12929;56.822;26.056;2023-12-20T01:25:03;2.00;99.90
20534;DHT22;12929;56.822;26.056;2023-12-20T01:27:30;2.00;99.90
20534;DHT22;12929;56.822;26.056;2023-12-20T01:29:58;2.00;99.90
20534;DHT22;12929;56.822;26.056;2023-12-20T01:32:26;2.00;99.90
20534;DHT22;12929;56.822;26.056;2023-12-20T01:34:53;2.10;99.90
20534;DHT22;12929;56.822;26.056;2023-12-20T01:37:24;2.00;99.90
20534;DHT22;12929;56.822;26.056;2023-12-20T01:39:52;2.00;99.90
20534;DHT22;12929;56.822;26.056;2023-12-20T01:42:20;2.00;99.90
20534;DHT22;12929;56.822;26.056;2023-12-20T01:44:47;2.00;99.90
20534;DHT22;12929;56.822;26.056;2023-12-20T01:47:15;2.00;99.90
20534;DHT22;12929;56.822;26.056;2023-12-20T01:49:43;2.00;99.90
20534;DHT22;12929;56.822;26.056;2023-12-20T01:52:11;2.00;99.90
20534;DHT22;12929;56.822;26.056;2023-12-20T01:54:40;2.00;99.90
20534;DHT22;12929;56.822;26.056;2023-12-20T01:57:10;2.00;99.90
20534;DHT22;12929;56.822;26.056;2023-12-20T01:59:41;2.00;99.90
20534;DHT22;12929;56.822;26.056;2023-12-20T02:02:08;2.00;99.90
20534;DHT22;12929;56.822;26.056;2023-12-20T02:04:36;2.00;99.90
20534;DHT22;12929;56.822;26.056;2023-12-20T02:07:04;1.90;99.90
20534;DHT22;12929;56.822;26.056;2023-12-20T02:09:32;1.90;99.90
20534;DHT22;12929;56.822;26.056;2023-12-20T02:12:00;1.90;99.90
20534;DHT22;12929;56.822;26.056;2023-12-20T02:14:27;1.90;99.90
20534;DHT22;12929;56.822;26.056;2023-12-20T02:16:55;1.90;99.90
20534;DHT22;12929;56.822;26.056;2023-12-20T02:19:26;1.90;99.90
20534;DHT22;12929;56.822;26.056;2023-12-20T02:22:08;1.90;99.90
20534;DHT22;12929;56.822;26.056;2023-12-20T02:24:36;1.90;99.90
20534;DHT22;12929;56.822;26.056;2023-12-20T02:27:06;1.90;99.90
20534;DHT22;12929;56.822;26.056;2023-12-20T02:29:34;1.90;99.90
20534;DHT22;12929;56.822;26.056;2023-12-20T02:32:02;1.80;99.90
20534;DHT22;12929;56.822;26.056;2023-12-20T02:34:30;1.80;99.90
20534;DHT22;12929;56.822;26.056;2023-12-20T02:36:57;1.80;99.90
20534;DHT22;12929;56.822;26.056;2023-12-20T02:39:25;1.80;99.90
20534;DHT22;12929;56.822;26.056;2023-12-20T02:41:53;1.80;99.90
20534;DHT22;12929;56.822;26.056;2023-12-20T02:44:20;1.80;99.90
20534;DHT22;12929;56.822;26.056;2023-12-20T02:46:48;1.80;99.90
20534;DHT22;12929;56.822;26.056;2023-12-20T02:49:15;1.80;99.90
20534;DHT22;12929;56.822;26.056;2023-12-20T02:51:43;1.80;99.90
20534;DHT22;12929;56.822;26.056;2023-12-20T02:54:10;1.80;99.90
20534;DHT22;12929;56.822;26.056;2023-12-20T02:56:38;1.80;99.90
20534;DHT22;12929;56.822;26.056;2023-12-20T02:59:05;1.80;99.90
20534;DHT22;12929;56.822;26.056;2023-12-20T03:01:35;1.80;99.90
20534;DHT22;12929;56.822;26.056;2023-12-20T03:04:08;1.80;99.90
20534;DHT22;12929;56.822;26.056;2023-12-20T03:06:36;1.80;99.90
20534;DHT22;12929;56.822;26.056;2023-12-20T03:09:04;1.80;99.90
20534;DHT22;12929;56.822;26.056;2023-12-20T03:11:31;1.70;99.90
20534;DHT22;12929;56.822;26.056;2023-12-20T03:13:59;1.70;99.90
20534;DHT22;12929;56.822;26.056;2023-12-20T03:16:26;1.70;99.90
20534;DHT22;12929;56.822;26.056;2023-12-20T03:18:54;1.70;99.90
20534;DHT22;12929;56.822;26.056;2023-12-20T03:21:21;1.70;99.90
20534;DHT22;12929;56.822;26.056;2023-12-20T03:23:49;1.70;99.90
20534;DHT22;12929;56.822;26.056;2023-12-20T03:26:17;1.70;99.90
20534;DHT22;12929;56.822;26.056;2023-12-20T03:28:44;1.70;99.90
20534;DHT22;12929;56.822;26.056;2023-12-20T03:31:11;1.70;99.90
20534;DHT22;12929;56.822;26.056;2023-12-20T03:33:39;1.70;99.90
20534;DHT22;12929;56.822;26.056;2023-12-20T03:36:07;1.70;99.90
20534;DHT22;12929;56.822;26.056;2023-12-20T03:38:35;1.70;99.90
20534;DHT22;12929;56.822;26.056;2023-12-20T03:41:02;1.70;99.90
20534;DHT22;12929;56.822;26.056;2023-12-20T03:43:30;1.60;99.90
20534;DHT22;12929;56.822;26.056;2023-12-20T03:45:57;1.60;99.90
20534;DHT22;12929;56.822;26.056;2023-12-20T03:48:26;1.60;99.90
20534;DHT22;12929;56.822;26.056;2023-12-20T03:50:53;1.60;99.90
20534;DHT22;12929;56.822;26.056;2023-12-20T03:53:21;1.60;99.90
20534;DHT22;12929;56.822;26.056;2023-12-20T03:55:49;1.60;99.90
20534;DHT22;12929;56.822;26.056;2023-12-20T03:58:16;1.60;99.90
20534;DHT22;12929;56.822;26.056;2023-12-20T04:00:44;1.60;99.90
20534;DHT22;12929;56.822;26.056;2023-12-20T04:03:11;1.60;99.90
20534;DHT22;12929;56.822;26.056;2023-12-20T04:05:41;1.60;99.90
20534;DHT22;12929;56.822;26.056;2023-12-20T04:08:09;1.60;99.90
20534;DHT22;12929;56.822;26.056;2023-12-20T04:10:37;1.60;99.90
20534;DHT22;12929;56.822;26.056;2023-12-20T04:13:04;1.60;99.90
20534;DHT22;12929;56.822;26.056;2023-12-20T04:15:32;1.50;99.90
20534;DHT22;12929;56.822;26.056;2023-12-20T04:18:00;1.50;99.90
20534;DHT22;12929;56.822;26.056;2023-12-20T04:20:27;1.50;99.90
20534;DHT22;12929;56.822;26.056;2023-12-20T04:22:55;1.50;99.90
20534;DHT22;12929;56.822;26.056;2023-12-20T04:25:22;1.50;99.90
20534;DHT22;12929;56.822;26.056;2023-12-20T04:27:50;1.50;99.90
20534;DHT22;12929;56.822;26.056;2023-12-20T04:30:18;1.50;99.90
20534;DHT22;12929;56.822;26.056;2023-12-20T04:32:45;1.50;99.90
20534;DHT22;12929;56.822;26.056;2023-12-20T04:35:13;1.50;99.90
20534;DHT22;12929;56.822;26.056;2023-12-20T04:37:41;1.50;99.90
20534;DHT22;12929;56.822;26.056;2023-12-20T04:40:09;1.50;99.90
20534;DHT22;12929;56.822;26.056;2023-12-20T04:42:37;1.50;99.90
20534;DHT22;12929;56.822;26.056;2023-12-20T04:45:05;1.50;99.90
20534;DHT22;12929;56.822;26.056;2023-12-20T04:47:33;1.50;99.90
20534;DHT22;12929;56.822;26.056;2023-12-20T04:50:00;1.50;99.90
20534;DHT22;12929;56.822;26.056;2023-12-20T04:52:28;1.50;99.90
20534;DHT22;12929;56.822;26.056;2023-12-20T04:54:56;1.50;99.90
20534;DHT22;12929;56.822;26.056;2023-12-20T04:57:23;1.40;99.90
20534;DHT22;12929;56.822;26.056;2023-12-20T04:59:51;1.40;99.90
20534;DHT22;12929;56.822;26.056;2023-12-20T05:02:18;1.40;99.90
20534;DHT22;12929;56.822;26.056;2023-12-20T05:04:46;1.40;99.90
20534;DHT22;12929;56.822;26.056;2023-12-20T05:07:13;1.40;99.90
20534;DHT22;12929;56.822;26.056;2023-12-20T05:09:41;1.40;99.90
20534;DHT22;12929;56.822;26.056;2023-12-20T05:12:09;1.40;99.90
20534;DHT22;12929;56.822;26.056;2023-12-20T05:14:36;1.40;99.90
20534;DHT22;12929;56.822;26.056;2023-12-20T05:17:04;1.40;99.90
20534;DHT22;12929;56.822;26.056;2023-12-20T05:19:31;1.40;99.90
20534;DHT22;12929;56.822;26.056;2023-12-20T05:22:03;1.40;99.90
20534;DHT22;12929;56.822;26.056;2023-12-20T05:24:30;1.40;99.90
20534;DHT22;12929;56.822;26.056;2023-12-20T05:26:58;1.40;99.90
20534;DHT22;12929;56.822;26.056;2023-12-20T05:29:25;1.40;99.90
20534;DHT22;12929;56.822;26.056;2023-12-20T05:31:52;1.40;99.90
20534;DHT22;12929;56.822;26.056;2023-12-20T05:34:20;1.40;99.90
20534;DHT22;12929;56.822;26.056;2023-12-20T05:36:48;1.40;99.90
20534;DHT22;12929;56.822;26.056;2023-12-20T05:39:15;1.40;99.90
20534;DHT22;12929;56.822;26.056;2023-12-20T05:41:43;1.30;99.90
20534;DHT22;12929;56.822;26.056;2023-12-20T05:44:10;1.30;99.90
20534;DHT22;12929;56.822;26.056;2023-12-20T05:46:37;1.30;99.90
20534;DHT22;12929;56.822;26.056;2023-12-20T05:49:05;1.30;99.90
20534;DHT22;12929;56.822;26.056;2023-12-20T05:51:32;1.30;99.90
20534;DHT22;12929;56.822;26.056;2023-12-20T05:54:00;1.30;99.90
20534;DHT22;12929;56.822;26.056;2023-12-20T05:56:27;1.30;99.90
20534;DHT22;12929;56.822;26.056;2023-12-20T05:58:55;1.30;99.90
20534;DHT22;12929;56.822;26.056;2023-12-20T06:01:22;1.30;99.90
20534;DHT22;12929;56.822;26.056;2023-12-20T06:03:49;1.30;99.90
20534;DHT22;12929;56.822;26.056;2023-12-20T06:06:17;1.30;99.90
20534;DHT22;12929;56.822;26.056;2023-12-20T06:08:45;1.30;99.90
20534;DHT22;12929;56.822;26.056;2023-12-20T06:11:12;1.30;99.90
20534;DHT22;12929;56.822;26.056;2023-12-20T06:13:40;1.30;99.90
20534;DHT22;12929;56.822;26.056;2023-12-20T06:16:08;1.30;99.90
20534;DHT22;12929;56.822;26.056;2023-12-20T06:18:36;1.30;99.90
20534;DHT22;12929;56.822;26.056;2023-12-20T06:21:04;1.30;99.90
20534;DHT22;12929;56.822;26.056;2023-12-20T06:23:32;1.30;99.90
20534;DHT22;12929;56.822;26.056;2023-12-20T06:25:59;1.30;99.90
20534;DHT22;12929;56.822;26.056;2023-12-20T06:28:27;1.30;99.90
20534;DHT22;12929;56.822;26.056;2023-12-20T06:30:55;1.30;99.90
20534;DHT22;12929;56.822;26.056;2023-12-20T06:33:24;1.30;99.90
20534;DHT22;12929;56.822;26.056;2023-12-20T06:35:52;1.20;99.90
20534;DHT22;12929;56.822;26.056;2023-12-20T06:38:20;1.20;99.90
20534;DHT22;12929;56.822;26.056;2023-12-20T06:40:48;1.30;99.90
20534;DHT22;12929;56.822;26.056;2023-12-20T06:43:15;1.20;99.90
20534;DHT22;12929;56.822;26.056;2023-12-20T06:46:03;1.20;99.90
20534;DHT22;12929;56.822;26.056;2023-12-20T06:48:31;1.20;99.90
20534;DHT22;12929;56.822;26.056;2023-12-20T06:51:00;1.20;99.90
20534;DHT22;12929;56.822;26.056;2023-12-20T06:53:29;1.20;99.90
20534;DHT22;12929;56.822;26.056;2023-12-20T06:55:56;1.20;99.90
20534;DHT22;12929;56.822;26.056;2023-12-20T06:58:24;1.20;99.90
20534;DHT22;12929;56.822;26.056;2023-12-20T07:00:51;1.20;99.90
20534;DHT22;12929;56.822;26.056;2023-12-20T07:03:19;1.20;99.90
20534;DHT22;12929;56.822;26.056;2023-12-20T07:05:46;1.20;99.90
20534;DHT22;12929;56.822;26.056;2023-12-20T07:08:14;1.20;99.90
20534;DHT22;12929;56.822;26.056;2023-12-20T07:10:42;1.30;99.90
20534;DHT22;12929;56.822;26.056;2023-12-20T07:13:10;1.20;99.90
20534;DHT22;12929;56.822;26.056;2023-12-20T07:15:37;1.20;99.90
20534;DHT22;12929;56.822;26.056;2023-12-20T07:18:05;1.30;99.90
20534;DHT22;12929;56.822;26.056;2023-12-20T07:20:33;1.20;99.90
20534;DHT22;12929;56.822;26.056;2023-12-20T07:23:01;1.20;99.90
20534;DHT22;12929;56.822;26.056;2023-12-20T07:25:28;1.30;99.90
20534;DHT22;12929;56.822;26.056;2023-12-20T07:27:56;1.20;99.90
20534;DHT22;12929;56.822;26.056;2023-12-20T07:30:23;1.20;99.90
20534;DHT22;12929;56.822;26.056;2023-12-20T07:32:51;1.30;99.90
20534;DHT22;12929;56.822;26.056;2023-12-20T07:35:19;1.30;99.90
20534;DHT22;12929;56.822;26.056;2023-12-20T07:37:47;1.30;99.90
20534;DHT22;12929;56.822;26.056;2023-12-20T07:40:15;1.30;99.90
20534;DHT22;12929;56.822;26.056;2023-12-20T07:42:44;1.30;99.90
20534;DHT22;12929;56.822;26.056;2023-12-20T07:45:11;1.30;99.90
20534;DHT22;12929;56.822;26.056;2023-12-20T07:47:39;1.30;99.90
20534;DHT22;12929;56.822;26.056;2023-12-20T07:50:08;1.30;99.90
20534;DHT22;12929;56.822;26.056;2023-12-20T07:52:37;1.30;99.90
20534;DHT22;12929;56.822;26.056;2023-12-20T07:55:05;1.30;99.90
20534;DHT22;12929;56.822;26.056;2023-12-20T07:57:33;1.30;99.90
20534;DHT22;12929;56.822;26.056;2023-12-20T08:00:00;1.30;99.90
20534;DHT22;12929;56.822;26.056;2023-12-20T08:02:30;1.30;99.90
20534;DHT22;12929;56.822;26.056;2023-12-20T08:04:57;1.30;99.90
20534;DHT22;12929;56.822;26.056;2023-12-20T08:07:25;1.30;99.90
20534;DHT22;12929;56.822;26.056;2023-12-20T08:09:52;1.30;99.90
20534;DHT22;12929;56.822;26.056;2023-12-20T08:12:22;1.30;99.90
20534;DHT22;12929;56.822;26.056;2023-12-20T08:14:49;1.30;99.90
20534;DHT22;12929;56.822;26.056;2023-12-20T08:17:17;1.30;99.90
20534;DHT22;12929;56.822;26.056;2023-12-20T08:19:46;1.30;99.90
20534;DHT22;12929;56.822;26.056;2023-12-20T08:22:13;1.30;99.90
20534;DHT22;12929;56.822;26.056;2023-12-20T08:24:41;1.30;99.90
20534;DHT22;12929;56.822;26.056;2023-12-20T08:27:08;1.30;99.90
20534;DHT22;12929;56.822;26.056;2023-12-20T08:29:36;1.30;99.90
20534;DHT22;12929;56.822;26.056;2023-12-20T08:32:04;1.30;99.90
20534;DHT22;12929;56.822;26.056;2023-12-20T08:34:34;1.30;99.90
20534;DHT22;12929;56.822;26.056;2023-12-20T08:37:01;1.30;99.90
20534;DHT22;12929;56.822;26.056;2023-12-20T08:39:29;1.30;99.90
20534;DHT22;12929;56.822;26.056;2023-12-20T08:41:59;1.30;99.90
20534;DHT22;12929;56.822;26.056;2023-12-20T08:44:26;1.30;99.90
20534;DHT22;12929;56.822;26.056;2023-12-20T08:46:54;1.30;99.90
20534;DHT22;12929;56.822;26.056;2023-12-20T08:49:24;1.30;99.90
20534;DHT22;12929;56.822;26.056;2023-12-20T08:51:52;1.30;99.90
20534;DHT22;12929;56.822;26.056;2023-12-20T08:54:20;1.30;99.90
20534;DHT22;12929;56.822;26.056;2023-12-20T08:56:47;1.20;99.90
20534;DHT22;12929;56.822;26.056;2023-12-20T08:59:15;1.20;99.90
20534;DHT22;12929;56.822;26.056;2023-12-20T09:01:42;1.20;99.90
20534;DHT22;12929;56.822;26.056;2023-12-20T09:04:09;1.20;99.90
20534;DHT22;12929;56.822;26.056;2023-12-20T09:06:37;1.30;99.90
20534;DHT22;12929;56.822;26.056;2023-12-20T09:09:05;1.30;99.90
20534;DHT22;12929;56.822;26.056;2023-12-20T09:11:33;1.20;99.90
20534;DHT22;12929;56.822;26.056;2023-12-20T09:14:00;1.20;99.90
20534;DHT22;12929;56.822;26.056;2023-12-20T09:16:28;1.20;99.90
20534;DHT22;12929;56.822;26.056;2023-12-20T09:18:55;1.20;99.90
20534;DHT22;12929;56.822;26.056;2023-12-20T09:21:23;1.20;99.90
20534;DHT22;12929;56.822;26.056;2023-12-20T09:23:51;1.20;99.90
20534;DHT22;12929;56.822;26.056;2023-12-20T09:26:18;1.20;99.90
20534;DHT22;12929;56.822;26.056;2023-12-20T09:28:46;1.20;99.90
20534;DHT22;12929;56.822;26.056;2023-12-20T09:31:13;1.10;99.90
20534;DHT22;12929;56.822;26.056;2023-12-20T09:33:41;1.20;99.90
20534;DHT22;12929;56.822;26.056;2023-12-20T09:36:09;1.20;99.90
20534;DHT22;12929;56.822;26.056;2023-12-20T09:38:37;1.20;99.90
20534;DHT22;12929;56.822;26.056;2023-12-20T09:41:04;1.20;99.90
20534;DHT22;12929;56.822;26.056;2023-12-20T09:43:37;1.20;99.90
20534;DHT22;12929;56.822;26.056;2023-12-20T09:46:06;1.20;99.90
20534;DHT22;12929;56.822;26.056;2023-12-20T09:48:37;1.20;99.90
20534;DHT22;12929;56.822;26.056;2023-12-20T09:51:06;1.20;99.90
20534;DHT22;12929;56.822;26.056;2023-12-20T09:53:35;1.20;99.90
20534;DHT22;12929;56.822;26.056;2023-12-20T09:56:06;1.20;99.90
20534;DHT22;12929;56.822;26.056;2023-12-20T09:58:39;1.20;99.90
20534;DHT22;12929;56.822;26.056;2023-12-20T10:01:10;1.10;99.90
20534;DHT22;12929;56.822;26.056;2023-12-20T10:03:39;1.10;99.90
20534;DHT22;12929;56.822;26.056;2023-12-20T10:06:08;1.10;99.90
20534;DHT22;12929;56.822;26.056;2023-12-20T10:08:36;1.10;99.90
20534;DHT22;12929;56.822;26.056;2023-12-20T10:11:05;1.10;99.90
20534;DHT22;12929;56.822;26.056;2023-12-20T10:13:32;1.10;99.90
20534;DHT22;12929;56.822;26.056;2023-12-20T10:16:01;1.10;99.90
20534;DHT22;12929;56.822;26.056;2023-12-20T10:18:29;1.10;99.90
20534;DHT22;12929;56.822;26.056;2023-12-20T10:21:06;1.20;99.90
20534;DHT22;12929;56.822;26.056;2023-12-20T10:23:37;1.20;99.90
20534;DHT22;12929;56.822;26.056;2023-12-20T10:26:07;1.20;99.90
20534;DHT22;12929;56.822;26.056;2023-12-20T10:28:34;1.30;99.90
20534;DHT22;12929;56.822;26.056;2023-12-20T10:31:03;1.30;99.90
20534;DHT22;12929;56.822;26.056;2023-12-20T10:33:31;1.30;99.90
20534;DHT22;12929;56.822;26.056;2023-12-20T10:36:02;1.40;99.90
20534;DHT22;12929;56.822;26.056;2023-12-20T10:38:30;1.40;99.90
20534;DHT22;12929;56.822;26.056;2023-12-20T10:40:58;1.40;99.90
20534;DHT22;12929;56.822;26.056;2023-12-20T10:43:30;1.40;99.90
20534;DHT22;12929;56.822;26.056;2023-12-20T10:45:59;1.40;99.90
20534;DHT22;12929;56.822;26.056;2023-12-20T10:48:35;1.50;99.90
20534;DHT22;12929;56.822;26.056;2023-12-20T10:51:04;1.50;99.90
20534;DHT22;12929;56.822;26.056;2023-12-20T10:53:33;1.50;99.90
20534;DHT22;12929;56.822;26.056;2023-12-20T10:56:04;1.50;99.90
20534;DHT22;12929;56.822;26.056;2023-12-20T10:58:33;1.50;99.90
20534;DHT22;12929;56.822;26.056;2023-12-20T11:01:04;1.50;99.90
20534;DHT22;12929;56.822;26.056;2023-12-20T11:03:36;1.50;99.90
20534;DHT22;12929;56.822;26.056;2023-12-20T11:08:50;1.60;99.90
20534;DHT22;12929;56.822;26.056;2023-12-20T11:11:34;1.50;99.90
20534;DHT22;12929;56.822;26.056;2023-12-20T11:14:06;1.50;99.90
20534;DHT22;12929;56.822;26.056;2023-12-20T11:16:39;1.50;99.90
20534;DHT22;12929;56.822;26.056;2023-12-20T11:19:20;1.50;99.90
20534;DHT22;12929;56.822;26.056;2023-12-20T11:21:48;1.50;99.90
20534;DHT22;12929;56.822;26.056;2023-12-20T11:24:16;1.50;99.90
20534;DHT22;12929;56.822;26.056;2023-12-20T11:26:47;1.50;99.90
20534;DHT22;12929;56.822;26.056;2023-12-20T11:29:34;1.50;99.90
20534;DHT22;12929;56.822;26.056;2023-12-20T11:34:54;1.50;99.90
20534;DHT22;12929;56.822;26.056;2023-12-20T11:37:22;1.50;99.90
20534;DHT22;12929;56.822;26.056;2023-12-20T11:39:56;1.50;99.90
20534;DHT22;12929;56.822;26.056;2023-12-20T11:42:23;1.50;99.90
20534;DHT22;12929;56.822;26.056;2023-12-20T11:44:51;1.50;99.90
20534;DHT22;12929;56.822;26.056;2023-12-20T11:47:19;1.50;99.90
20534;DHT22;12929;56.822;26.056;2023-12-20T11:49:47;1.50;99.90
20534;DHT22;12929;56.822;26.056;2023-12-20T11:52:16;1.50;99.90
20534;DHT22;12929;56.822;26.056;2023-12-20T11:54:45;1.50;99.90
20534;DHT22;12929;56.822;26.056;2023-12-20T11:57:13;1.50;99.90
20534;DHT22;12929;56.822;26.056;2023-12-20T11:59:41;1.50;99.90
20534;DHT22;12929;56.822;26.056;2023-12-20T12:02:12;1.50;99.90
20534;DHT22;12929;56.822;26.056;2023-12-20T12:04:42;1.50;99.90
20534;DHT22;12929;56.822;26.056;2023-12-20T12:07:09;1.50;99.90
20534;DHT22;12929;56.822;26.056;2023-12-20T12:09:37;1.50;99.90
20534;DHT22;12929;56.822;26.056;2023-12-20T12:12:06;1.50;99.90
20534;DHT22;12929;56.822;26.056;2023-12-20T12:14:37;1.50;99.90
20534;DHT22;12929;56.822;26.056;2023-12-20T12:17:04;1.50;99.90
20534;DHT22;12929;56.822;26.056;2023-12-20T12:19:32;1.40;99.90
20534;DHT22;12929;56.822;26.056;2023-12-20T12:22:07;1.50;99.90
20534;DHT22;12929;56.822;26.056;2023-12-20T12:24:41;1.50;99.90
20534;DHT22;12929;56.822;26.056;2023-12-20T12:27:08;1.40;99.90
20534;DHT22;12929;56.822;26.056;2023-12-20T12:29:37;1.40;99.90
20534;DHT22;12929;56.822;26.056;2023-12-20T12:32:06;1.40;99.90
20534;DHT22;12929;56.822;26.056;2023-12-20T12:34:37;1.40;99.90
20534;DHT22;12929;56.822;26.056;2023-12-20T12:37:06;1.30;99.90
20534;DHT22;12929;56.822;26.056;2023-12-20T12:39:34;1.30;99.90
20534;DHT22;12929;56.822;26.056;2023-12-20T12:42:02;1.40;99.90
20534;DHT22;12929;56.822;26.056;2023-12-20T12:44:29;1.40;99.90
20534;DHT22;12929;56.822;26.056;2023-12-20T12:46:58;1.40;99.90
20534;DHT22;12929;56.822;26.056;2023-12-20T12:49:28;1.30;99.90
20534;DHT22;12929;56.822;26.056;2023-12-20T12:51:56;1.40;99.90
20534;DHT22;12929;56.822;26.056;2023-12-20T12:54:28;1.40;99.90
20534;DHT22;12929;56.822;26.056;2023-12-20T12:56:56;1.30;99.90
20534;DHT22;12929;56.822;26.056;2023-12-20T12:59:26;1.40;99.90
20534;DHT22;12929;56.822;26.056;2023-12-20T13:01:53;1.40;99.90
20534;DHT22;12929;56.822;26.056;2023-12-20T13:04:21;1.40;99.90
20534;DHT22;12929;56.822;26.056;2023-12-20T13:06:48;1.30;99.90
20534;DHT22;12929;56.822;26.056;2023-12-20T13:09:16;1.30;99.90
20534;DHT22;12929;56.822;26.056;2023-12-20T13:11:44;1.30;99.90
20534;DHT22;12929;56.822;26.056;2023-12-20T13:14:11;1.30;99.90
20534;DHT22;12929;56.822;26.056;2023-12-20T13:16:43;1.30;99.90
20534;DHT22;12929;56.822;26.056;2023-12-20T13:19:12;1.20;99.90
20534;DHT22;12929;56.822;26.056;2023-12-20T13:21:40;1.20;99.90
20534;DHT22;12929;56.822;26.056;2023-12-20T13:24:08;1.20;99.90
20534;DHT22;12929;56.822;26.056;2023-12-20T13:26:38;1.20;99.90
20534;DHT22;12929;56.822;26.056;2023-12-20T13:29:06;1.30;99.90
20534;DHT22;12929;56.822;26.056;2023-12-20T13:31:38;1.20;99.90
20534;DHT22;12929;56.822;26.056;2023-12-20T13:34:07;1.20;99.90
20534;DHT22;12929;56.822;26.056;2023-12-20T13:36:35;1.20;99.90
20534;DHT22;12929;56.822;26.056;2023-12-20T13:39:04;1.20;99.90
20534;DHT22;12929;56.822;26.056;2023-12-20T13:41:35;1.20;99.90
20534;DHT22;12929;56.822;26.056;2023-12-20T13:44:02;1.10;99.90
20534;DHT22;12929;56.822;26.056;2023-12-20T13:46:31;1.10;99.90
20534;DHT22;12929;56.822;26.056;2023-12-20T13:48:59;1.20;99.90
20534;DHT22;12929;56.822;26.056;2023-12-20T13:51:26;1.10;99.90
20534;DHT22;12929;56.822;26.056;2023-12-20T13:53:54;1.10;99.90
20534;DHT22;12929;56.822;26.056;2023-12-20T13:56:21;1.10;99.90
20534;DHT22;12929;56.822;26.056;2023-12-20T13:58:50;1.10;99.90
20534;DHT22;12929;56.822;26.056;2023-12-20T14:01:18;1.10;99.90
20534;DHT22;12929;56.822;26.056;2023-12-20T14:03:46;1.10;99.90
20534;DHT22;12929;56.822;26.056;2023-12-20T14:06:14;1.00;99.90
20534;DHT22;12929;56.822;26.056;2023-12-20T14:08:42;1.00;99.90
20534;DHT22;12929;56.822;26.056;2023-12-20T14:11:10;1.00;99.90
20534;DHT22;12929;56.822;26.056;2023-12-20T14:13:38;1.00;99.90
20534;DHT22;12929;56.822;26.056;2023-12-20T14:16:05;1.00;99.90
20534;DHT22;12929;56.822;26.056;2023-12-20T14:18:33;1.00;99.90
20534;DHT22;12929;56.822;26.056;2023-12-20T14:21:00;1.00;99.90
20534;DHT22;12929;56.822;26.056;2023-12-20T14:23:28;1.00;99.90
20534;DHT22;12929;56.822;26.056;2023-12-20T14:25:55;1.00;99.90
20534;DHT22;12929;56.822;26.056;2023-12-20T14:28:24;1.00;99.90
20534;DHT22;12929;56.822;26.056;2023-12-20T14:30:51;1.00;99.90
20534;DHT22;12929;56.822;26.056;2023-12-20T14:33:19;0.90;99.90
20534;DHT22;12929;56.822;26.056;2023-12-20T14:35:48;1.00;99.90
20534;DHT22;12929;56.822;26.056;2023-12-20T14:38:16;1.00;99.90
20534;DHT22;12929;56.822;26.056;2023-12-20T14:40:43;1.00;99.90
20534;DHT22;12929;56.822;26.056;2023-12-20T14:43:11;1.00;99.90
20534;DHT22;12929;56.822;26.056;2023-12-20T14:45:38;1.10;99.90
20534;DHT22;12929;56.822;26.056;2023-12-20T14:48:06;1.10;99.90
20534;DHT22;12929;56.822;26.056;2023-12-20T14:50:33;1.00;99.90
20534;DHT22;12929;56.822;26.056;2023-12-20T14:53:01;1.00;99.90
20534;DHT22;12929;56.822;26.056;2023-12-20T14:55:29;1.00;99.90
20534;DHT22;12929;56.822;26.056;2023-12-20T14:57:57;1.10;99.90
20534;DHT22;12929;56.822;26.056;2023-12-20T15:00:25;1.00;99.90
20534;DHT22;12929;56.822;26.056;2023-12-20T15:02:52;1.00;99.90
20534;DHT22;12929;56.822;26.056;2023-12-20T15:05:23;0.90;99.90
20534;DHT22;12929;56.822;26.056;2023-12-20T15:07:50;1.00;99.90
20534;DHT22;12929;56.822;26.056;2023-12-20T15:10:18;1.00;99.90
20534;DHT22;12929;56.822;26.056;2023-12-20T15:12:46;1.00;99.90
20534;DHT22;12929;56.822;26.056;2023-12-20T15:15:13;1.00;99.90
20534;DHT22;12929;56.822;26.056;2023-12-20T15:17:41;1.00;99.90
20534;DHT22;12929;56.822;26.056;2023-12-20T15:20:09;1.00;99.90
20534;DHT22;12929;56.822;26.056;2023-12-20T15:22:37;1.00;99.90
20534;DHT22;12929;56.822;26.056;2023-12-20T15:25:07;1.00;99.90
20534;DHT22;12929;56.822;26.056;2023-12-20T15:27:35;1.00;99.90
20534;DHT22;12929;56.822;26.056;2023-12-20T15:30:06;1.00;99.90
20534;DHT22;12929;56.822;26.056;2023-12-20T15:32:37;1.00;99.90
20534;DHT22;12929;56.822;26.056;2023-12-20T15:35:05;0.90;99.90
20534;DHT22;12929;56.822;26.056;2023-12-20T15:37:34;0.90;99.90
20534;DHT22;12929;56.822;26.056;2023-12-20T15:40:01;0.90;99.90
20534;DHT22;12929;56.822;26.056;2023-12-20T15:42:32;1.00;99.90